createdAt,value
2022-12-20T00:02:01.336Z,16.40
2022-12-20T00:04:30.384Z,16.40
2022-12-20T00:06:59.329Z,16.40
2022-12-20T00:09:28.578Z,16.40
2022-12-20T00:11:57.484Z,16.40
2022-12-20T00:14:27.044Z,16.50
2022-12-20T00:16:56.144Z,16.50
2022-12-20T00:19:25.127Z,16.60
2022-12-20T00:21:54.725Z,16.60
2022-12-20T00:24:26.296Z,16.70
2022-12-20T00:26:55.704Z,16.70
2022-12-20T00:29:24.732Z,16.80
2022-12-20T00:31:53.739Z,16.90
2022-12-20T00:34:23.031Z,16.90
2022-12-20T00:36:52.038Z,17.00
2022-12-20T00:39:21.031Z,17.10
2022-12-20T00:41:50.116Z,17.20
2022-12-20T00:44:19.055Z,17.30
2022-12-20T00:46:48.108Z,17.30
2022-12-20T00:49:17.653Z,17.40
2022-12-20T00:51:46.636Z,17.50
2022-12-20T00:54:15.855Z,17.60
2022-12-20T00:56:44.893Z,17.60
2022-12-20T00:59:14.018Z,17.70
2022-12-20T01:01:43.099Z,17.80
2022-12-20T01:04:12.191Z,17.90
2022-12-20T01:06:41.907Z,18.00
2022-12-20T01:09:11.820Z,18.10
2022-12-20T01:11:41.432Z,18.20
2022-12-20T01:14:15.466Z,18.30
2022-12-20T01:16:47.278Z,18.50
2022-12-20T01:19:18.475Z,18.50
2022-12-20T01:21:47.699Z,18.70
2022-12-20T01:24:19.264Z,18.80
2022-12-20T01:26:49.410Z,19.00
2022-12-20T01:29:18.691Z,19.10
2022-12-20T01:31:47.704Z,19.20
2022-12-20T01:34:16.790Z,19.40
2022-12-20T01:36:45.906Z,19.50
2022-12-20T01:39:18.055Z,19.60
2022-12-20T01:41:47.966Z,19.80
2022-12-20T01:44:19.872Z,19.80
2022-12-20T01:46:50.562Z,19.90
2022-12-20T01:49:27.673Z,20.00
2022-12-20T01:52:12.692Z,20.10
2022-12-20T01:55:10.294Z,20.30
2022-12-20T01:57:48.543Z,20.40
2022-12-20T02:00:18.413Z,20.60
2022-12-20T02:02:51.894Z,20.70
2022-12-20T02:05:24.241Z,20.80
2022-12-20T02:07:56.828Z,20.80
2022-12-20T02:10:36.546Z,20.90
2022-12-20T02:13:14.075Z,20.90
2022-12-20T02:15:53.327Z,21.10
2022-12-20T02:18:43.713Z,21.20
2022-12-20T02:21:20.066Z,21.40
2022-12-20T02:24:16.693Z,21.50
2022-12-20T02:27:10.412Z,21.70
2022-12-20T02:29:58.841Z,21.80
2022-12-20T02:32:42.536Z,21.90
2022-12-20T02:35:15.360Z,22.00
2022-12-20T02:37:56.863Z,22.00
2022-12-20T02:40:30.319Z,22.00
2022-12-20T02:43:04.449Z,22.10
2022-12-20T02:45:35.820Z,22.30
2022-12-20T02:48:11.513Z,22.40
2022-12-20T02:50:46.779Z,22.50
2022-12-20T02:53:16.702Z,22.60
2022-12-20T02:55:58.648Z,22.80
2022-12-20T02:58:37.635Z,22.90
2022-12-20T03:01:14.974Z,22.90
2022-12-20T03:03:44.266Z,22.90
2022-12-20T03:06:13.389Z,23.00
2022-12-20T03:08:42.527Z,23.10
2022-12-20T03:11:11.658Z,23.30
2022-12-20T03:13:42.305Z,23.40
2022-12-20T03:16:12.055Z,23.40
2022-12-20T03:18:41.156Z,23.50
2022-12-20T03:21:10.154Z,23.60
2022-12-20T03:23:39.172Z,23.70
2022-12-20T03:26:08.349Z,23.90
2022-12-20T03:28:37.483Z,24.00
2022-12-20T03:31:09.472Z,24.20
2022-12-20T03:33:38.513Z,24.30
2022-12-20T03:36:09.963Z,24.40
2022-12-20T03:38:39.509Z,24.50
2022-12-20T03:41:08.587Z,24.50
2022-12-20T03:43:37.551Z,24.60
2022-12-20T03:46:07.133Z,24.70
2022-12-20T03:48:36.178Z,24.80
2022-12-20T03:51:05.625Z,24.80
2022-12-20T03:53:35.290Z,24.70
2022-12-20T03:56:04.305Z,24.70
2022-12-20T03:58:33.420Z,24.80
2022-12-20T04:01:02.700Z,24.90
2022-12-20T04:03:31.952Z,24.90
2022-12-20T04:06:01.037Z,24.90
2022-12-20T04:08:29.971Z,24.90
2022-12-20T04:11:19.024Z,24.90
2022-12-20T04:13:53.574Z,24.90
2022-12-20T04:16:24.986Z,25.00
2022-12-20T04:18:54.375Z,25.00
2022-12-20T04:21:31.768Z,25.00
2022-12-20T04:24:02.391Z,25.00
2022-12-20T04:26:31.704Z,25.00
2022-12-20T04:29:00.780Z,24.90
2022-12-20T04:31:30.011Z,24.80
2022-12-20T04:33:59.004Z,24.80
2022-12-20T04:36:28.298Z,24.90
2022-12-20T04:38:57.311Z,25.00
2022-12-20T04:41:28.115Z,25.00
2022-12-20T04:43:59.420Z,25.10
2022-12-20T04:46:29.060Z,25.10
2022-12-20T04:48:59.636Z,25.10
2022-12-20T04:51:29.721Z,25.10
2022-12-20T04:53:59.011Z,25.20
2022-12-20T04:56:30.236Z,25.20
2022-12-20T04:59:00.815Z,25.20
2022-12-20T05:01:29.988Z,25.10
2022-12-20T05:03:59.182Z,25.10
2022-12-20T05:06:28.243Z,25.00
2022-12-20T05:08:57.439Z,25.10
2022-12-20T05:11:26.390Z,25.10
2022-12-20T05:13:55.498Z,25.20
2022-12-20T05:16:24.497Z,25.20
2022-12-20T05:18:55.000Z,25.20
2022-12-20T05:21:41.838Z,25.10
2022-12-20T05:24:29.972Z,25.10
2022-12-20T05:26:59.088Z,25.00
2022-12-20T05:29:28.797Z,24.90
2022-12-20T05:31:57.830Z,24.80
2022-12-20T05:34:26.984Z,24.90
2022-12-20T05:36:55.999Z,25.00
2022-12-20T05:39:24.986Z,25.00
2022-12-20T05:41:54.821Z,25.10
2022-12-20T05:44:28.901Z,25.20
2022-12-20T05:46:58.064Z,25.30
2022-12-20T05:49:29.627Z,25.50
2022-12-20T05:51:58.553Z,25.50
2022-12-20T05:54:27.559Z,25.50
2022-12-20T05:56:59.435Z,25.50
2022-12-20T05:59:28.326Z,25.50
2022-12-20T06:01:57.401Z,25.50
2022-12-20T06:04:26.925Z,25.50
2022-12-20T06:06:55.889Z,25.60
2022-12-20T06:09:24.839Z,25.50
2022-12-20T06:11:54.354Z,25.50
2022-12-20T06:14:23.677Z,25.60
2022-12-20T06:16:53.814Z,25.70
2022-12-20T06:19:23.060Z,25.70
2022-12-20T06:21:52.070Z,25.80
2022-12-20T06:24:21.017Z,25.80
2022-12-20T06:26:50.246Z,25.80
2022-12-20T06:29:21.849Z,25.80
2022-12-20T06:31:50.854Z,25.80
2022-12-20T06:34:20.364Z,25.90
2022-12-20T06:36:49.291Z,26.10
2022-12-20T06:39:18.309Z,26.30
2022-12-20T06:41:50.368Z,26.40
2022-12-20T06:44:19.973Z,26.50
2022-12-20T06:46:48.971Z,26.60
2022-12-20T06:49:18.239Z,26.70
2022-12-20T06:51:47.209Z,26.80
2022-12-20T06:54:18.061Z,26.90
2022-12-20T06:56:47.050Z,27.00
2022-12-20T06:59:16.502Z,27.10
2022-12-20T07:01:51.156Z,27.20
2022-12-20T07:04:26.623Z,27.30
2022-12-20T07:06:58.926Z,27.30
2022-12-20T07:09:27.923Z,27.10
2022-12-20T07:11:57.099Z,26.90
2022-12-20T07:14:26.322Z,26.70
2022-12-20T07:16:56.079Z,26.70
2022-12-20T07:19:25.191Z,26.80
2022-12-20T07:21:55.227Z,26.90
2022-12-20T07:24:24.238Z,27.00
2022-12-20T07:26:55.168Z,27.20
2022-12-20T07:29:24.252Z,27.30
2022-12-20T07:31:55.317Z,27.30
2022-12-20T07:34:24.961Z,27.50
2022-12-20T07:36:55.151Z,27.60
2022-12-20T07:39:24.715Z,27.70
2022-12-20T07:41:58.139Z,27.80
2022-12-20T07:44:27.736Z,27.80
2022-12-20T07:46:56.700Z,27.80
2022-12-20T07:49:25.758Z,27.60
2022-12-20T07:52:00.968Z,27.60
2022-12-20T07:54:36.820Z,27.60
2022-12-20T07:57:17.504Z,27.80
2022-12-20T07:59:51.454Z,27.80
2022-12-20T08:02:23.444Z,27.80
2022-12-20T08:04:52.619Z,27.70
2022-12-20T08:07:21.784Z,27.70
2022-12-20T08:09:51.073Z,27.80
2022-12-20T08:12:21.413Z,27.70
2022-12-20T08:14:53.614Z,27.50
2022-12-20T08:17:25.482Z,27.50
2022-12-20T08:19:54.744Z,27.60
2022-12-20T08:22:24.212Z,27.60
2022-12-20T08:24:53.166Z,27.70
2022-12-20T08:27:22.121Z,27.80
2022-12-20T08:29:54.432Z,27.80
2022-12-20T08:32:26.078Z,27.70
2022-12-20T08:34:55.578Z,27.60
2022-12-20T08:37:28.607Z,27.50
2022-12-20T08:40:01.863Z,27.40
2022-12-20T08:42:31.069Z,27.30
2022-12-20T08:45:00.108Z,27.30
2022-12-20T08:47:31.721Z,27.30
2022-12-20T08:50:00.916Z,27.30
2022-12-20T08:52:30.971Z,27.30
2022-12-20T08:55:01.753Z,27.30
2022-12-20T08:57:31.431Z,27.20
2022-12-20T09:00:00.494Z,27.20
2022-12-20T09:02:29.667Z,27.20
2022-12-20T09:04:58.865Z,27.20
2022-12-20T09:07:28.246Z,27.10
2022-12-20T09:09:58.148Z,27.00
2022-12-20T09:12:27.418Z,27.00
2022-12-20T09:14:56.460Z,26.90
2022-12-20T09:17:25.669Z,26.80
2022-12-20T09:19:56.275Z,26.80
2022-12-20T09:22:25.175Z,26.70
2022-12-20T09:24:54.309Z,26.70
2022-12-20T09:27:23.651Z,26.70
2022-12-20T09:29:52.679Z,26.70
2022-12-20T09:32:21.793Z,26.60
2022-12-20T09:34:50.977Z,26.60
2022-12-20T09:37:19.989Z,26.50
2022-12-20T09:39:54.087Z,26.50
2022-12-20T09:42:27.189Z,26.50
2022-12-20T09:45:09.666Z,26.40
2022-12-20T09:47:40.462Z,26.40
2022-12-20T09:50:16.917Z,26.30
2022-12-20T09:53:18.164Z,26.30
2022-12-20T09:56:00.706Z,26.20
2022-12-20T09:58:44.337Z,26.20
2022-12-20T10:01:25.257Z,26.20
2022-12-20T10:03:57.636Z,26.10
2022-12-20T10:06:45.365Z,26.10
2022-12-20T10:09:58.466Z,26.10
2022-12-20T10:12:48.730Z,26.00
2022-12-20T10:15:23.865Z,25.90
2022-12-20T10:18:08.167Z,25.90
2022-12-20T10:21:12.332Z,25.90
2022-12-20T10:23:46.956Z,25.90
2022-12-20T10:26:16.356Z,25.80
2022-12-20T10:28:50.743Z,25.80
2022-12-20T10:31:23.465Z,25.80
2022-12-20T10:33:52.845Z,25.70
2022-12-20T10:36:35.109Z,25.70
2022-12-20T10:39:09.370Z,25.60
2022-12-20T10:41:41.394Z,25.60
2022-12-20T10:44:27.855Z,25.50
2022-12-20T10:46:59.625Z,25.50
2022-12-20T10:49:42.105Z,25.40
2022-12-20T10:52:11.456Z,25.40
2022-12-20T10:54:40.323Z,25.40
2022-12-20T10:57:25.723Z,25.30
2022-12-20T11:00:07.418Z,25.30
2022-12-20T11:02:42.139Z,25.20
2022-12-20T11:05:11.986Z,25.20
2022-12-20T11:08:33.460Z,25.10
2022-12-20T11:10:45.088Z,25.10
2022-12-20T11:13:30.245Z,25.00
2022-12-20T11:16:02.507Z,24.90
2022-12-20T11:18:49.352Z,24.90
2022-12-20T11:21:28.496Z,24.80
2022-12-20T11:24:24.226Z,24.80
2022-12-20T11:27:22.242Z,24.70
2022-12-20T11:30:09.390Z,24.60
2022-12-20T11:32:56.701Z,24.60
2022-12-20T11:35:38.780Z,24.60
2022-12-20T11:38:32.432Z,24.50
2022-12-20T11:41:16.846Z,24.50
2022-12-20T11:44:23.418Z,24.40
2022-12-20T11:47:10.517Z,24.30
2022-12-20T11:49:58.665Z,24.30
2022-12-20T11:52:38.492Z,24.20
2022-12-20T11:55:30.893Z,24.10
2022-12-20T11:58:19.252Z,24.10
2022-12-20T12:00:53.400Z,24.00
2022-12-20T12:03:34.809Z,24.00
2022-12-20T12:06:30.360Z,23.90
2022-12-20T12:09:19.813Z,23.80
2022-12-20T12:12:27.238Z,23.80
2022-12-20T12:15:09.894Z,23.80
2022-12-20T12:18:03.619Z,23.70
2022-12-20T12:20:51.211Z,23.70
2022-12-20T12:23:29.534Z,23.60
2022-12-20T12:26:03.050Z,23.60
2022-12-20T12:28:32.085Z,23.50
2022-12-20T12:31:08.136Z,23.50
2022-12-20T12:33:47.435Z,23.50
2022-12-20T12:37:05.619Z,23.40
2022-12-20T12:39:52.742Z,23.30
2022-12-20T12:42:58.280Z,23.20
2022-12-20T12:46:03.012Z,23.10
2022-12-20T12:48:59.274Z,23.00
2022-12-20T12:51:35.938Z,23.00
2022-12-20T12:54:10.624Z,22.90
2022-12-20T12:56:47.152Z,22.90
2022-12-20T12:59:46.562Z,22.90
2022-12-20T13:02:16.073Z,22.90
2022-12-20T13:05:11.363Z,22.80
2022-12-20T13:07:44.685Z,22.80
2022-12-20T13:10:16.856Z,22.80
2022-12-20T13:12:54.666Z,22.80
2022-12-20T13:15:23.712Z,22.70
2022-12-20T13:17:56.832Z,22.70
2022-12-20T13:20:28.235Z,22.60
2022-12-20T13:23:15.297Z,22.60
2022-12-20T13:25:50.031Z,22.50
2022-12-20T13:28:25.174Z,22.50
2022-12-20T13:31:03.269Z,22.40
2022-12-20T13:33:48.666Z,22.40
2022-12-20T13:36:38.361Z,22.30
2022-12-20T13:39:34.373Z,22.30
2022-12-20T13:42:32.157Z,22.30
2022-12-20T13:45:05.566Z,22.20
2022-12-20T13:47:41.924Z,22.20
2022-12-20T13:50:25.785Z,22.20
2022-12-20T13:52:55.859Z,22.10
2022-12-20T13:55:38.213Z,22.10
2022-12-20T13:58:13.227Z,22.00
2022-12-20T14:00:43.043Z,22.00
2022-12-20T14:03:32.897Z,22.00
2022-12-20T14:06:05.408Z,21.90
2022-12-20T14:08:37.605Z,21.90
2022-12-20T14:11:11.090Z,21.90
2022-12-20T14:13:40.640Z,21.90
2022-12-20T14:16:18.080Z,21.80
2022-12-20T14:19:06.600Z,21.80
2022-12-20T14:21:43.003Z,21.80
2022-12-20T14:24:22.342Z,21.80
2022-12-20T14:26:54.889Z,21.80
2022-12-20T14:29:32.226Z,21.80
2022-12-20T14:32:01.233Z,21.70
2022-12-20T14:34:38.054Z,21.70
2022-12-20T14:37:25.377Z,21.70
2022-12-20T14:40:06.113Z,21.70
2022-12-20T14:42:38.145Z,21.60
2022-12-20T14:45:17.100Z,21.60
2022-12-20T14:48:08.578Z,21.50
2022-12-20T14:50:41.867Z,21.50
2022-12-20T14:53:21.551Z,21.40
2022-12-20T14:55:50.959Z,21.40
2022-12-20T14:58:36.901Z,21.30
2022-12-20T15:01:21.935Z,21.30
2022-12-20T15:04:02.071Z,21.30
2022-12-20T15:06:35.767Z,21.20
2022-12-20T15:09:06.445Z,21.20
2022-12-20T15:11:38.024Z,21.20
2022-12-20T15:14:41.899Z,21.20
2022-12-20T15:17:16.940Z,21.20
2022-12-20T15:19:46.125Z,21.20
2022-12-20T15:22:21.153Z,21.20
2022-12-20T15:24:50.072Z,21.20
2022-12-20T15:27:19.196Z,21.10
2022-12-20T15:29:48.092Z,21.20
2022-12-20T15:32:25.155Z,21.10
2022-12-20T15:34:54.286Z,21.10
2022-12-20T15:37:23.324Z,21.10
2022-12-20T15:39:52.567Z,21.00
2022-12-20T15:42:24.036Z,21.00
2022-12-20T15:44:53.062Z,21.00
2022-12-20T15:47:22.065Z,21.00
2022-12-20T15:49:50.996Z,21.00
2022-12-20T15:52:25.472Z,21.00
2022-12-20T15:54:54.786Z,21.00
2022-12-20T15:57:23.832Z,21.00
2022-12-20T16:00:02.103Z,21.00
2022-12-20T16:02:32.307Z,21.00
2022-12-20T16:05:02.593Z,20.90
2022-12-20T16:07:31.887Z,20.90
2022-12-20T16:10:00.865Z,20.90
2022-12-20T16:12:34.706Z,20.90
2022-12-20T16:15:03.766Z,20.90
2022-12-20T16:17:32.731Z,20.90
2022-12-20T16:20:01.793Z,20.80
2022-12-20T16:22:30.709Z,20.80
2022-12-20T16:25:00.093Z,20.80
2022-12-20T16:27:29.111Z,20.80
2022-12-20T16:29:58.299Z,20.80
2022-12-20T16:32:27.236Z,20.80
2022-12-20T16:34:56.161Z,20.70
2022-12-20T16:37:25.186Z,20.70
2022-12-20T16:39:54.232Z,20.70
2022-12-20T16:42:23.483Z,20.80
2022-12-20T16:44:55.511Z,20.70
2022-12-20T16:47:24.577Z,20.80
2022-12-20T16:49:53.988Z,20.80
2022-12-20T16:52:24.653Z,20.80
2022-12-20T16:54:53.687Z,20.70
2022-12-20T16:57:22.640Z,20.70
2022-12-20T16:59:51.590Z,20.70
2022-12-20T17:02:32.211Z,20.70
2022-12-20T17:05:02.408Z,20.70
2022-12-20T17:07:34.096Z,20.60
2022-12-20T17:10:11.528Z,20.60
2022-12-20T17:12:40.183Z,20.50
2022-12-20T17:15:16.167Z,20.50
2022-12-20T17:17:45.259Z,20.50
2022-12-20T17:20:15.334Z,20.40
2022-12-20T17:25:31.333Z,20.40
2022-12-20T17:28:00.322Z,20.40
2022-12-20T17:30:29.277Z,20.40
2022-12-20T17:32:58.374Z,20.40
2022-12-20T17:35:32.353Z,20.30
2022-12-20T17:38:03.014Z,20.30
2022-12-20T17:40:32.147Z,20.30
2022-12-20T17:43:01.608Z,20.30
2022-12-20T17:45:33.610Z,20.30
2022-12-20T17:48:02.596Z,20.30
2022-12-20T17:50:31.571Z,20.20
2022-12-20T17:53:00.670Z,20.20
2022-12-20T17:55:30.372Z,20.20
2022-12-20T17:57:59.364Z,20.20
2022-12-20T18:00:38.464Z,20.20
2022-12-20T18:03:15.819Z,20.20
2022-12-20T18:06:00.948Z,20.20
2022-12-20T18:08:34.893Z,20.20
2022-12-20T18:11:04.174Z,20.20
2022-12-20T18:13:33.543Z,20.20
2022-12-20T18:16:07.433Z,20.20
2022-12-20T18:18:37.346Z,20.20
2022-12-20T18:21:09.110Z,20.20
2022-12-20T18:23:39.378Z,20.20
2022-12-20T18:26:23.453Z,20.20
2022-12-20T18:28:56.370Z,20.20
2022-12-20T18:31:28.515Z,20.10
2022-12-20T18:33:58.963Z,20.10
2022-12-20T18:36:33.499Z,20.10
2022-12-20T18:39:03.626Z,20.10
2022-12-20T18:41:33.280Z,20.10
2022-12-20T18:44:04.516Z,20.10
2022-12-20T18:46:35.019Z,20.10
2022-12-20T18:49:04.733Z,20.10
2022-12-20T18:51:39.329Z,20.10
2022-12-20T18:54:09.792Z,20.00
2022-12-20T18:56:40.319Z,20.00
2022-12-20T18:59:12.627Z,20.00
2022-12-20T19:01:43.586Z,20.00
2022-12-20T19:04:14.299Z,20.00
2022-12-20T19:06:44.934Z,20.00
2022-12-20T19:09:15.299Z,20.00
2022-12-20T19:11:44.919Z,20.00
2022-12-20T19:14:14.720Z,20.00
2022-12-20T19:16:43.752Z,19.90
2022-12-20T19:19:12.772Z,19.90
2022-12-20T19:21:43.425Z,19.90
2022-12-20T19:24:13.170Z,19.90
2022-12-20T19:26:42.932Z,19.90
2022-12-20T19:29:12.939Z,19.90
2022-12-20T19:31:42.120Z,19.90
2022-12-20T19:34:13.924Z,19.90
2022-12-20T19:36:46.574Z,19.90
2022-12-20T19:39:21.613Z,19.90
2022-12-20T19:42:21.793Z,19.90
2022-12-20T19:44:40.248Z,19.90
2022-12-20T19:47:09.166Z,19.90
2022-12-20T19:49:38.339Z,20.00
2022-12-20T19:52:08.549Z,20.00
2022-12-20T19:54:37.549Z,19.90
2022-12-20T19:57:06.733Z,19.90
2022-12-20T19:59:35.771Z,19.90
2022-12-20T20:02:04.845Z,19.90
2022-12-20T20:04:34.182Z,19.90
2022-12-20T20:07:04.823Z,19.90
2022-12-20T20:09:33.832Z,19.90
2022-12-20T20:12:03.364Z,19.80
2022-12-20T20:14:32.594Z,19.80
2022-12-20T20:17:01.533Z,19.80
2022-12-20T20:19:30.499Z,19.80
2022-12-20T20:21:59.532Z,19.70
2022-12-20T20:24:28.692Z,19.70
2022-12-20T20:26:57.624Z,19.70
2022-12-20T20:29:26.641Z,19.60
2022-12-20T20:31:55.771Z,19.60
2022-12-20T20:34:24.911Z,19.60
2022-12-20T20:36:53.872Z,19.60
2022-12-20T20:39:23.062Z,19.50
2022-12-20T20:41:52.035Z,19.50
2022-12-20T20:44:21.044Z,19.50
2022-12-20T20:46:50.277Z,19.40
2022-12-20T20:49:20.791Z,19.40
2022-12-20T20:51:49.751Z,19.40
2022-12-20T20:54:18.693Z,19.30
2022-12-20T20:56:47.612Z,19.30
2022-12-20T20:59:18.071Z,19.30
2022-12-20T21:01:47.321Z,19.30
2022-12-20T21:04:16.418Z,19.30
2022-12-20T21:06:47.086Z,19.30
2022-12-20T21:09:16.090Z,19.30
2022-12-20T21:11:45.329Z,19.20
2022-12-20T21:14:14.528Z,19.20
2022-12-20T21:16:43.556Z,19.20
2022-12-20T21:19:12.690Z,19.20
2022-12-20T21:21:41.726Z,19.10
2022-12-20T21:24:10.681Z,19.10
2022-12-20T21:26:39.569Z,19.00
2022-12-20T21:29:08.608Z,19.00
2022-12-20T21:31:38.475Z,19.00
2022-12-20T21:34:07.726Z,19.00
2022-12-20T21:36:36.993Z,19.00
2022-12-20T21:39:06.375Z,18.90
2022-12-20T21:41:35.384Z,18.90
2022-12-20T21:44:04.604Z,18.90
2022-12-20T21:46:34.174Z,18.80
2022-12-20T21:49:03.219Z,18.70
2022-12-20T21:51:32.912Z,18.80
2022-12-20T21:54:03.276Z,18.70
2022-12-20T21:56:35.019Z,18.70
2022-12-20T21:59:05.292Z,18.70
2022-12-20T22:01:34.397Z,18.60
2022-12-20T22:04:07.727Z,18.60
2022-12-20T22:06:37.159Z,18.60
2022-12-20T22:09:11.157Z,18.60
2022-12-20T22:11:41.046Z,18.50
2022-12-20T22:14:12.839Z,18.50
2022-12-20T22:16:42.487Z,18.50
2022-12-20T22:19:16.534Z,18.40
2022-12-20T22:21:45.516Z,18.30
2022-12-20T22:24:14.681Z,18.30
2022-12-20T22:26:43.670Z,18.30
2022-12-20T22:29:12.617Z,18.30
2022-12-20T22:31:41.641Z,18.20
2022-12-20T22:34:10.639Z,18.20
2022-12-20T22:36:39.663Z,18.20
2022-12-20T22:39:09.863Z,18.20
2022-12-20T22:41:39.105Z,18.10
2022-12-20T22:44:08.251Z,18.00
2022-12-20T22:46:37.162Z,18.00
2022-12-20T22:49:06.293Z,17.90
2022-12-20T22:51:35.266Z,17.80
2022-12-20T22:54:04.248Z,17.80
2022-12-20T22:56:33.236Z,17.70
2022-12-20T22:59:02.824Z,17.60
2022-12-20T23:01:31.830Z,17.60
2022-12-20T23:04:01.044Z,17.50
2022-12-20T23:06:30.049Z,17.40
2022-12-20T23:08:59.185Z,17.30
2022-12-20T23:11:48.700Z,17.30
2022-12-20T23:14:38.894Z,17.20
2022-12-20T23:17:10.306Z,17.10
2022-12-20T23:19:57.800Z,17.10
2022-12-20T23:22:39.559Z,17.00
2022-12-20T23:25:14.797Z,17.00
2022-12-20T23:27:45.910Z,16.90
2022-12-20T23:30:18.202Z,16.90
2022-12-20T23:32:47.170Z,16.80
2022-12-20T23:35:17.953Z,16.70
2022-12-20T23:37:47.906Z,16.70
2022-12-20T23:40:18.225Z,16.70
2022-12-20T23:42:47.430Z,16.70
2022-12-20T23:45:16.654Z,16.70
2022-12-20T23:47:45.576Z,16.70
2022-12-20T23:50:14.546Z,16.70
2022-12-20T23:52:43.555Z,16.70
2022-12-20T23:55:12.453Z,16.70
2022-12-20T23:57:41.535Z,16.70
